Time;durP1;ratioP1;P1;durP2;ratioP2;P2;SDS_P1;SDS_P2;PMS_P1;PMS_P2;Temp;Humidity;BMP_temperature;BMP_pressure;BME280_temperature;BME280_humidity;BME280_pressure;Samples;Min_cycle;Max_cycle;Signal;HPM_P1;HPM_P2
2022/10/27 00:00:40;;;;;;;7.43;3.50;;;;;;;14.49;100.00;102350.09;2055548;28;20293;-65
2022/10/27 00:01:40;;;;;;;7.70;3.83;;;;;;;14.50;100.00;102350.91;2053287;28;20210;-65
2022/10/27 00:02:41;;;;;;;6.13;3.50;;;;;;;14.52;100.00;102354.84;2054014;28;20206;-65
2022/10/27 00:03:41;;;;;;;7.27;3.83;;;;;;;14.53;100.00;102353.66;2054377;28;20238;-65
2022/10/27 00:04:41;;;;;;;6.60;3.80;;;;;;;14.56;100.00;102352.78;2054054;28;20193;-65
2022/10/27 00:05:44;;;;;;;7.37;3.70;;;;;;;14.00;100.00;102272.63;2056191;28;20218;-65
2022/10/27 00:06:44;;;;;;;6.40;3.80;;;;;;;14.57;100.00;102359.19;2055364;28;20690;-65
2022/10/27 00:07:44;;;;;;;6.40;4.03;;;;;;;14.58;100.00;102358.75;2054231;28;20829;-65
2022/10/27 00:08:45;;;;;;;6.50;3.87;;;;;;;14.60;100.00;102353.53;2054135;28;20194;-65
2022/10/27 00:09:45;;;;;;;5.80;3.73;;;;;;;14.61;100.00;102355.13;2053915;28;21034;-65
2022/10/27 00:11:00;;;;;;;5.80;3.70;;;;;;;14.58;100.00;102372.72;2054266;28;20190;-65
2022/10/27 00:12:01;;;;;;;6.87;3.70;;;;;;;14.57;100.00;102362.75;2053469;28;20750;-65
2022/10/27 00:13:05;;;;;;;9.50;3.93;;;;;;;14.58;100.00;102361.56;2055778;28;20552;-65
2022/10/27 00:14:05;;;;;;;7.43;4.30;;;;;;;14.59;100.00;102356.75;2055893;28;20655;-64
2022/10/27 00:15:07;;;;;;;6.00;3.80;;;;;;;13.90;100.00;102242.88;2054554;28;20457;-64
2022/10/27 00:16:15;;;;;;;6.93;4.00;;;;;;;14.52;100.00;102342.91;2053930;28;20200;-65
2022/10/27 00:17:16;;;;;;;5.87;3.80;;;;;;;14.62;100.00;102367.06;2054342;28;20447;-65
2022/10/27 00:18:16;;;;;;;7.10;4.00;;;;;;;14.60;100.00;102369.50;2053948;28;20458;-65
2022/10/27 00:19:17;;;;;;;5.67;3.97;;;;;;;14.54;100.00;102360.78;2054059;28;20670;-65
2022/10/27 00:20:17;;;;;;;7.27;3.57;;;;;;;14.60;100.00;102366.72;2055598;28;20203;-65
2022/10/27 00:21:20;;;;;;;7.47;3.33;;;;;;;14.62;100.00;102362.31;2054324;28;20194;-65
2022/10/27 00:22:20;;;;;;;6.10;3.40;;;;;;;14.64;100.00;102368.25;2053649;28;20598;-65
2022/10/27 00:23:20;;;;;;;7.23;3.97;;;;;;;14.65;100.00;102364.25;2054179;28;20478;-65
2022/10/27 00:24:21;;;;;;;5.53;3.57;;;;;;;14.67;100.00;102366.63;2053974;28;20634;-65
2022/10/27 00:25:21;;;;;;;6.83;4.00;;;;;;;14.69;100.00;102369.78;2054301;28;20194;-65
2022/10/27 00:26:22;;;;;;;6.10;3.43;;;;;;;14.40;100.00;102319.13;2055812;28;20190;-65
2022/10/27 00:27:22;;;;;;;7.97;3.47;;;;;;;13.98;100.00;102243.56;2054045;28;20621;-65
2022/10/27 00:28:23;;;;;;;5.77;3.37;;;;;;;13.87;100.00;102235.31;2053697;28;20202;-65
2022/10/27 00:29:24;;;;;;;5.60;3.97;;;;;;;14.72;100.00;102363.38;2054017;28;20280;-65
2022/10/27 00:30:24;;;;;;;8.00;3.60;;;;;;;14.73;100.00;102370.53;2053749;28;20453;-65
2022/10/27 00:31:25;;;;;;;8.40;3.93;;;;;;;14.71;100.00;102368.13;2053859;28;20212;-65
2022/10/27 00:32:25;;;;;;;7.53;4.13;;;;;;;14.72;100.00;102366.16;2055453;28;20255;-65
2022/10/27 00:33:27;;;;;;;5.90;3.93;;;;;;;14.73;100.00;102373.31;2054193;28;20237;-65
2022/10/27 00:34:27;;;;;;;7.17;3.70;;;;;;;14.75;100.00;102368.88;2053793;28;20221;-65
2022/10/27 00:35:28;;;;;;;5.77;3.43;;;;;;;14.77;100.00;102369.28;2053995;28;20978;-65
2022/10/27 00:36:28;;;;;;;8.10;4.07;;;;;;;14.81;100.00;102369.22;2053585;28;21006;-65
2022/10/27 00:37:29;;;;;;;6.93;3.67;;;;;;;14.82;100.00;102373.59;2053928;28;20214;-65
2022/10/27 00:38:29;;;;;;;6.13;3.67;;;;;;;14.83;100.00;102367.59;2055786;28;20194;-65
2022/10/27 00:39:29;;;;;;;6.43;3.80;;;;;;;14.60;100.00;102331.22;2053769;28;20207;-65
2022/10/27 00:40:36;;;;;;;6.17;3.77;;;;;;;14.25;100.00;102278.69;2053761;28;20263;-65
2022/10/27 00:41:41;;;;;;;6.40;3.40;;;;;;;14.04;100.00;102242.66;2053683;28;20311;-65
2022/10/27 00:42:42;;;;;;;7.93;3.93;;;;;;;14.84;100.00;102365.56;2053621;28;20778;-65
2022/10/27 00:43:42;;;;;;;7.90;3.83;;;;;;;14.91;100.00;102371.09;2053989;28;20456;-65
2022/10/27 00:44:45;;;;;;;6.17;3.83;;;;;;;14.91;100.00;102369.06;2053998;28;20182;-65
2022/10/27 00:45:45;;;;;;;6.80;3.83;;;;;;;14.90;100.00;102369.50;2055694;28;20195;-65
2022/10/27 00:46:46;;;;;;;7.73;3.97;;;;;;;14.88;100.00;102375.50;2053657;28;20449;-65
2022/10/27 00:47:47;;;;;;;5.70;3.53;;;;;;;14.87;100.00;102376.72;2053835;28;20222;-65
2022/10/27 00:48:53;;;;;;;7.23;3.87;;;;;;;14.53;100.00;102317.38;2053877;28;20722;-65
2022/10/27 00:50:09;;;;;;;5.23;2.97;;;;;;;14.90;100.00;102375.09;2053576;28;20236;-65
2022/10/27 00:51:15;;;;;;;5.77;3.60;;;;;;;14.91;100.00;102376.66;2053587;28;20485;-65
2022/10/27 00:52:22;;;;;;;7.23;3.30;;;;;;;14.92;100.00;102378.25;2053168;28;20813;-65
2022/10/27 00:53:22;;;;;;;5.90;3.60;;;;;;;14.92;100.00;102376.25;2053839;28;20441;-65
2022/10/27 00:54:27;;;;;;;5.93;3.93;;;;;;;14.94;100.00;102376.59;2055537;28;20469;-65
2022/10/27 00:55:32;;;;;;;5.43;3.43;;;;;;;14.65;100.00;102335.56;2055365;28;20189;-65
2022/10/27 00:56:33;;;;;;;6.20;3.33;;;;;;;14.96;100.00;102379.00;2053601;28;21002;-65
2022/10/27 00:57:34;;;;;;;6.60;3.87;;;;;;;14.97;100.00;102378.53;2053610;28;21992;-65
2022/10/27 00:58:35;;;;;;;7.27;3.90;;;;;;;14.64;100.00;102329.19;2053262;28;20234;-65
2022/10/27 00:59:36;;;;;;;9.23;3.50;;;;;;;14.97;100.00;102380.56;2053740;28;20435;-66
2022/10/27 01:00:40;;;;;;;6.77;4.00;;;;;;;14.95;100.00;102385.75;2053552;28;20281;-65
2022/10/27 01:01:40;;;;;;;7.63;4.13;;;;;;;14.91;100.00;102369.06;2055456;28;20977;-65
2022/10/27 01:02:41;;;;;;;6.40;3.50;;;;;;;14.97;100.00;102378.53;2053569;28;20448;-65
2022/10/27 01:03:43;;;;;;;12.57;4.00;;;;;;;14.97;100.00;102378.53;2053927;28;20210;-65
2022/10/27 01:04:51;;;;;;;10.63;3.90;;;;;;;14.98;100.00;102365.38;2053967;28;20276;-65
2022/10/27 01:05:55;;;;;;;6.80;3.47;;;;;;;14.98;100.00;102366.19;2053708;28;20531;-65
2022/10/27 01:06:57;;;;;;;7.33;3.73;;;;;;;14.60;100.00;102316.50;2053830;28;20460;-65
2022/10/27 01:08:01;;;;;;;11.33;3.73;;;;;;;14.94;100.00;102364.63;2053607;28;20992;-65
2022/10/27 01:09:04;;;;;;;8.37;3.70;;;;;;;14.92;100.00;102365.09;2054594;28;20429;-65
2022/10/27 01:10:05;;;;;;;7.23;3.87;;;;;;;14.37;100.00;102289.28;2055379;28;20438;-65
2022/10/27 01:11:05;;;;;;;9.10;3.97;;;;;;;14.91;100.00;102380.22;2053947;28;20564;-65
2022/10/27 01:12:06;;;;;;;6.37;3.53;;;;;;;14.22;100.00;102282.31;2053292;28;20449;-65
2022/10/27 01:13:06;;;;;;;5.47;3.67;;;;;;;14.84;100.00;102377.53;2053539;28;20194;-65
2022/10/27 01:14:07;;;;;;;7.93;3.83;;;;;;;14.84;100.00;102387.91;2053537;28;20587;-65
2022/10/27 01:15:09;;;;;;;9.47;3.77;;;;;;;14.82;100.00;102381.97;2054340;28;20240;-65
2022/10/27 01:16:39;;;;;;;6.37;3.83;;;;;;;14.81;100.00;102381.16;2055072;28;20268;-65
2022/10/27 01:18:06;;;;;;;9.33;4.17;;;;;;;14.80;100.00;102378.81;2050712;28;20462;-65
2022/10/27 01:19:42;;;;;;;6.57;3.80;;;;;;;14.79;100.00;102380.00;2053553;28;20449;-65
2022/10/27 01:21:13;;;;;;;6.80;3.70;;;;;;;14.76;100.00;102387.22;2052698;28;20450;-65
2022/10/27 01:22:52;;;;;;;7.87;3.83;;;;;;;14.69;100.00;102384.53;2054532;28;20564;-65
2022/10/27 01:24:14;;;;;;;6.70;4.00;;;;;;;14.68;100.00;102388.53;2052935;28;20444;-65
2022/10/27 01:25:48;;;;;;;9.70;3.90;;;;;;;14.67;100.00;102384.16;2053680;28;20468;-65
2022/10/27 01:26:52;;;;;;;7.03;4.00;;;;;;;14.64;100.00;102381.41;2053609;28;20465;-65
2022/10/27 01:28:01;;;;;;;9.03;3.90;;;;;;;14.67;100.00;102381.38;2053512;28;20449;-65
2022/10/27 01:29:32;;;;;;;6.07;3.93;;;;;;;14.67;100.00;102389.75;2053754;28;20874;-65
2022/10/27 01:30:57;;;;;;;5.03;3.33;;;;;;;14.51;100.00;102360.84;2053356;28;20919;-65
2022/10/27 01:32:17;;;;;;;7.97;3.67;;;;;;;14.63;100.00;102382.59;2054743;28;20787;-65
2022/10/27 01:33:27;;;;;;;9.40;4.07;;;;;;;14.58;100.00;102383.06;2055427;28;20511;-65
2022/10/27 01:34:46;;;;;;;7.43;4.17;;;;;;;14.62;100.00;102389.41;2054941;28;20495;-65
2022/10/27 01:36:01;;;;;;;10.80;4.50;;;;;;;14.61;100.00;102385.81;2053880;28;20425;-65
2022/10/27 01:37:20;;;;;;;7.10;3.73;;;;;;;14.60;100.00;102389.81;2054200;28;20420;-65
2022/10/27 01:38:36;;;;;;;8.77;4.33;;;;;;;14.56;100.00;102389.06;2053522;28;20432;-65
2022/10/27 01:39:50;;;;;;;8.93;4.33;;;;;;;14.42;100.00;102360.56;2052571;28;20938;-65
2022/10/27 01:41:02;;;;;;;7.63;3.50;;;;;;;14.59;100.00;102393.00;2053166;28;20928;-65
2022/10/27 01:42:11;;;;;;;6.97;3.80;;;;;;;14.61;100.00;102393.41;2052995;28;20429;-65
2022/10/27 01:43:16;;;;;;;5.60;3.90;;;;;;;14.62;100.00;102393.00;2053632;28;20484;-65
2022/10/27 01:44:22;;;;;;;7.57;4.23;;;;;;;14.62;100.00;102393.00;2054983;28;20464;-65
2022/10/27 01:45:27;;;;;;;6.37;4.00;;;;;;;14.64;100.00;102398.13;2054967;28;20917;-65
2022/10/27 01:46:27;;;;;;;6.77;3.90;;;;;;;14.65;100.00;102399.75;2053412;28;20511;-65
2022/10/27 01:47:30;;;;;;;5.37;3.60;;;;;;;14.29;100.00;102356.75;2053656;28;20515;-65
2022/10/27 01:48:35;;;;;;;5.73;3.60;;;;;;;14.58;100.00;102395.03;2053594;28;20244;-65
2022/10/27 01:49:40;;;;;;;9.90;4.30;;;;;;;14.60;100.00;102400.97;2053239;28;20506;-65
2022/10/27 01:50:42;;;;;;;7.33;4.00;;;;;;;14.57;100.00;102390.66;2053385;28;20522;-65
2022/10/27 01:51:42;;;;;;;6.77;3.57;;;;;;;14.66;100.00;102404.09;2052802;28;20447;-65
2022/10/27 01:52:48;;;;;;;6.97;3.63;;;;;;;14.67;100.00;102414.84;2054995;28;20436;-65
2022/10/27 01:53:50;;;;;;;6.37;3.60;;;;;;;14.53;100.00;102389.91;2054269;28;20222;-65
2022/10/27 01:54:51;;;;;;;7.00;4.70;;;;;;;14.65;100.00;102406.09;2053676;28;20756;-65
2022/10/27 01:56:04;;;;;;;6.43;3.90;;;;;;;14.67;100.00;102405.69;2053485;28;20446;-65
2022/10/27 01:57:27;;;;;;;8.07;4.23;;;;;;;14.67;100.00;102409.28;2053849;28;20228;-65
2022/10/27 01:58:45;;;;;;;23.30;5.23;;;;;;;14.67;100.00;102417.66;2053402;28;20467;-65
2022/10/27 02:00:07;;;;;;;23.50;5.40;;;;;;;14.66;100.00;102409.69;2052931;28;20979;-65
2022/10/27 02:01:32;;;;;;;15.83;5.70;;;;;;;14.68;100.00;102402.47;2054338;28;21032;-65
2022/10/27 02:02:50;;;;;;;17.83;4.90;;;;;;;14.69;100.00;102409.63;2054453;28;20422;-65
2022/10/27 02:03:59;;;;;;;17.97;5.30;;;;;;;14.68;100.00;102408.06;2053053;28;20521;-65
2022/10/27 02:05:14;;;;;;;26.53;6.30;;;;;;;14.68;100.00;102410.84;2054743;28;20433;-65
2022/10/27 02:06:46;;;;;;;15.67;5.03;;;;;;;14.69;100.00;102406.84;2053545;28;20519;-65
2022/10/27 02:08:05;;;;;;;12.83;4.40;;;;;;;14.68;100.00;102402.47;2051494;28;20457;-65
2022/10/27 02:09:09;;;;;;;13.20;4.63;;;;;;;14.67;100.00;102403.69;2054176;28;20452;-65
2022/10/27 02:10:20;;;;;;;11.80;4.40;;;;;;;14.47;100.00;102376.84;2055619;28;20974;-65
2022/10/27 02:11:21;;;;;;;9.87;3.93;;;;;;;14.63;100.00;102396.56;2055950;28;20445;-65
2022/10/27 02:12:30;;;;;;;11.97;4.20;;;;;;;14.68;100.00;102405.28;2055510;28;20484;-65
2022/10/27 02:13:34;;;;;;;10.10;4.50;;;;;;;14.69;100.00;102403.25;2057213;28;20660;-65
2022/10/27 02:14:35;;;;;;;10.27;4.50;;;;;;;14.69;100.00;102395.69;2057946;28;20477;-65
2022/10/27 02:15:39;;;;;;;8.93;4.17;;;;;;;14.71;100.00;102403.66;2056347;28;20452;-65
2022/10/27 02:16:44;;;;;;;13.97;4.70;;;;;;;14.72;100.00;102402.44;2056263;28;20560;-65
2022/10/27 02:17:47;;;;;;;10.87;4.70;;;;;;;14.73;100.00;102404.00;2056174;28;20445;-65
2022/10/27 02:18:52;;;;;;;14.13;4.97;;;;;;;14.73;100.00;102404.81;2056206;28;20949;-65
2022/10/27 02:19:55;;;;;;;10.07;4.10;;;;;;;14.74;100.00;102416.75;2056035;28;20999;-65
2022/10/27 02:21:02;;;;;;;8.23;4.50;;;;;;;14.29;100.00;102332.41;2056298;28;20425;-65
2022/10/27 02:22:04;;;;;;;8.83;4.03;;;;;;;14.75;100.00;102409.97;2056107;28;20437;-65
2022/10/27 02:23:07;;;;;;;12.30;4.47;;;;;;;14.15;100.00;102318.59;2057485;28;20452;-65
2022/10/27 02:24:08;;;;;;;7.07;4.13;;;;;;;14.73;100.00;102406.81;2056164;28;20453;-65
2022/10/27 02:25:09;;;;;;;8.37;4.30;;;;;;;14.27;100.00;102342.41;2056488;28;20449;-64
2022/10/27 02:26:44;;;;;;;8.17;3.97;;;;;;;14.75;100.00;102407.19;2055912;28;20256;-64
2022/10/27 02:27:50;;;;;;;8.93;3.77;;;;;;;14.74;100.00;102403.59;2056038;28;20204;-64
2022/10/27 02:28:58;;;;;;;10.73;4.17;;;;;;;14.05;100.00;102308.41;2056543;28;20938;-64
2022/10/27 02:30:02;;;;;;;7.33;3.70;;;;;;;14.66;100.00;102404.09;2056013;28;20449;-64
2022/10/27 02:31:04;;;;;;;10.33;4.50;;;;;;;13.87;100.00;102293.84;2056333;28;20955;-64
2022/10/27 02:32:08;;;;;;;6.53;4.03;;;;;;;14.63;100.00;102419.69;2055648;28;20430;-64
2022/10/27 02:33:09;;;;;;;10.20;4.67;;;;;;;14.60;100.00;102417.72;2056299;28;20811;-64
2022/10/27 02:34:11;;;;;;;11.80;4.70;;;;;;;14.60;100.00;102416.94;2057712;28;20572;-65
2022/10/27 02:35:14;;;;;;;9.83;4.70;;;;;;;14.59;100.00;102426.50;2056609;28;20957;-65
2022/10/27 02:36:15;;;;;;;13.60;5.10;;;;;;;14.43;100.00;102415.13;2055732;28;20453;-65
2022/10/27 02:37:34;;;;;;;14.40;4.90;;;;;;;14.46;100.00;102429.06;2056050;28;20938;-65
2022/10/27 02:38:35;;;;;;;9.53;4.80;;;;;;;14.50;100.00;102426.22;2056501;28;20652;-65
2022/10/27 02:39:36;;;;;;;16.67;5.47;;;;;;;13.75;100.00;102313.91;2056367;28;20904;-65
2022/10/27 02:40:36;;;;;;;10.17;4.70;;;;;;;14.50;100.00;102431.81;2056078;28;20198;-65
2022/10/27 02:41:37;;;;;;;14.17;5.07;;;;;;;14.52;100.00;102429.38;2054927;28;20720;-64
2022/10/27 02:42:37;;;;;;;9.77;4.90;;;;;;;14.52;100.00;102429.38;2057081;28;20194;-64
2022/10/27 02:43:38;;;;;;;11.83;4.93;;;;;;;14.52;100.00;102437.75;2056258;28;20273;-64
2022/10/27 02:44:38;;;;;;;16.63;5.47;;;;;;;14.14;100.00;102381.16;2056580;28;20302;-64
2022/10/27 02:45:39;;;;;;;10.97;5.40;;;;;;;14.49;100.00;102442.16;2056530;28;20211;-64
2022/10/27 02:46:39;;;;;;;12.10;4.90;;;;;;;14.50;100.00;102434.59;2056059;28;20221;-64
2022/10/27 02:47:39;;;;;;;12.20;5.20;;;;;;;14.51;100.00;102436.16;2056057;28;20795;-64
2022/10/27 02:48:40;;;;;;;11.83;4.80;;;;;;;14.51;100.00;102442.53;2057932;28;20281;-64
2022/10/27 02:49:40;;;;;;;14.70;4.90;;;;;;;14.53;100.00;102444.91;2056055;28;20210;-65
2022/10/27 02:50:41;;;;;;;10.97;4.83;;;;;;;14.54;100.00;102441.72;2055939;28;20246;-65
2022/10/27 02:51:41;;;;;;;10.30;4.87;;;;;;;14.55;100.00;102440.50;2055883;28;20908;-65
2022/10/27 02:52:43;;;;;;;14.13;4.83;;;;;;;14.47;100.00;102429.84;2055646;28;21521;-65
2022/10/27 02:53:43;;;;;;;16.50;5.17;;;;;;;14.56;100.00;102444.84;2056507;28;20190;-64
2022/10/27 02:54:47;;;;;;;11.77;5.50;;;;;;;14.58;100.00;102450.03;2057703;28;20487;-64
2022/10/27 02:55:47;;;;;;;9.30;4.47;;;;;;;14.58;100.00;102441.66;2056365;28;20197;-64
2022/10/27 02:56:47;;;;;;;8.93;4.40;;;;;;;14.59;100.00;102451.59;2055823;28;20525;-64
2022/10/27 02:57:48;;;;;;;9.13;4.57;;;;;;;14.60;100.00;102442.06;2055695;28;20602;-65
2022/10/27 02:58:48;;;;;;;8.57;4.70;;;;;;;14.36;100.00;102415.22;2055953;28;20182;-65
2022/10/27 02:59:49;;;;;;;9.43;4.40;;;;;;;14.58;100.00;102450.84;2055767;28;20189;-65
2022/10/27 03:00:54;;;;;;;12.73;5.07;;;;;;;14.58;100.00;102456.41;2057004;28;20645;-65
2022/10/27 03:01:55;;;;;;;8.07;4.50;;;;;;;14.59;100.00;102454.41;2055793;28;20201;-65
2022/10/27 03:02:55;;;;;;;8.67;4.33;;;;;;;14.59;100.00;102454.41;2055910;28;20443;-65
2022/10/27 03:03:55;;;;;;;9.90;4.53;;;;;;;14.60;100.00;102458.78;2055859;28;20189;-65
2022/10/27 03:04:56;;;;;;;8.20;4.43;;;;;;;14.60;100.00;102459.56;2055940;28;20244;-65
2022/10/27 03:05:57;;;;;;;9.10;4.37;;;;;;;14.61;100.00;102463.94;2055817;28;20201;-65
2022/10/27 03:06:57;;;;;;;10.90;4.70;;;;;;;14.62;100.00;102454.38;2057944;28;20425;-65
2022/10/27 03:07:58;;;;;;;9.30;4.53;;;;;;;14.62;100.00;102461.94;2056233;28;20222;-65
2022/10/27 03:08:58;;;;;;;9.30;4.33;;;;;;;14.46;100.00;102434.66;2056239;28;20194;-65
2022/10/27 03:09:59;;;;;;;7.20;4.10;;;;;;;14.63;100.00;102467.13;2055712;28;20196;-65
2022/10/27 03:10:59;;;;;;;6.17;4.13;;;;;;;14.63;100.00;102467.13;2055576;28;20734;-65
2022/10/27 03:12:00;;;;;;;9.07;4.80;;;;;;;14.64;100.00;102470.69;2055367;28;20199;-65
2022/10/27 03:13:00;;;;;;;8.63;4.70;;;;;;;14.54;100.00;102466.81;2057364;28;20204;-65
2022/10/27 03:14:00;;;;;;;9.37;4.63;;;;;;;14.57;100.00;102474.38;2056159;28;20197;-65
2022/10/27 03:15:01;;;;;;;8.17;4.50;;;;;;;14.57;100.00;102476.34;2056150;28;20675;-65
2022/10/27 03:16:01;;;;;;;9.47;5.00;;;;;;;14.57;100.00;102474.38;2055833;28;20216;-64
2022/10/27 03:17:02;;;;;;;10.37;5.23;;;;;;;14.57;100.00;102470.78;2056011;28;20183;-64
2022/10/27 03:18:03;;;;;;;7.77;4.30;;;;;;;14.59;100.00;102487.88;2056098;28;20190;-64
2022/10/27 03:19:04;;;;;;;8.07;4.67;;;;;;;14.60;100.00;102470.72;2057593;28;20194;-64
2022/10/27 03:20:05;;;;;;;11.67;4.90;;;;;;;14.59;100.00;102469.16;2055857;28;20452;-64
2022/10/27 03:21:05;;;;;;;8.47;4.40;;;;;;;14.59;100.00;102469.16;2055092;28;20776;-64
2022/10/27 03:22:05;;;;;;;8.67;4.77;;;;;;;14.60;100.00;102464.38;2054083;28;20233;-64
2022/10/27 03:23:06;;;;;;;11.53;4.83;;;;;;;14.60;100.00;102481.91;2054531;28;20200;-64
2022/10/27 03:24:06;;;;;;;7.13;4.30;;;;;;;14.60;100.00;102473.53;2056300;28;20248;-64
2022/10/27 03:25:10;;;;;;;9.00;4.57;;;;;;;14.61;100.00;102477.88;2054987;28;20559;-64
2022/10/27 03:26:10;;;;;;;8.10;4.40;;;;;;;14.61;100.00;102479.91;2054606;28;20722;-64
2022/10/27 03:27:11;;;;;;;7.17;4.30;;;;;;;14.43;100.00;102441.03;2054915;28;20807;-65
2022/10/27 03:28:12;;;;;;;8.03;4.17;;;;;;;14.60;100.00;102478.31;2054319;28;20201;-65
2022/10/27 03:29:12;;;;;;;7.07;4.50;;;;;;;14.57;100.00;102471.59;2054793;28;20189;-65
2022/10/27 03:30:15;;;;;;;8.60;4.90;;;;;;;14.60;100.00;102483.91;2055236;28;20211;-65
2022/10/27 03:31:16;;;;;;;7.70;4.13;;;;;;;14.58;100.00;102478.75;2056873;28;20187;-65
2022/10/27 03:32:16;;;;;;;6.80;3.87;;;;;;;14.58;100.00;102487.09;2053800;28;21108;-65
2022/10/27 03:33:17;;;;;;;7.60;4.10;;;;;;;13.55;100.00;102326.00;2055070;28;20194;-65
2022/10/27 03:34:17;;;;;;;9.27;4.50;;;;;;;14.55;100.00;102484.38;2054556;28;20240;-65
2022/10/27 03:35:19;;;;;;;6.40;4.47;;;;;;;14.55;100.00;102481.56;2054628;28;20661;-65
2022/10/27 03:36:19;;;;;;;10.97;4.70;;;;;;;14.50;100.00;102470.88;2054674;28;20187;-65
2022/10/27 03:37:20;;;;;;;8.13;4.47;;;;;;;14.55;100.00;102487.94;2056258;28;20449;-65
2022/10/27 03:38:20;;;;;;;10.93;4.60;;;;;;;14.54;100.00;102475.19;2054391;28;20300;-65
2022/10/27 03:39:21;;;;;;;11.20;4.57;;;;;;;14.56;100.00;102480.34;2054295;28;20190;-65
2022/10/27 03:40:22;;;;;;;7.33;4.53;;;;;;;13.84;100.00;102374.72;2054248;28;20652;-65
2022/10/27 03:41:22;;;;;;;8.53;4.17;;;;;;;14.55;100.00;102487.16;2054021;28;20190;-66
2022/10/27 03:42:23;;;;;;;7.80;4.20;;;;;;;14.55;100.00;102484.38;2054835;28;20507;-65
2022/10/27 03:43:23;;;;;;;9.10;4.20;;;;;;;14.01;100.00;102398.81;2056188;28;20261;-65
2022/10/27 03:44:23;;;;;;;11.00;4.07;;;;;;;14.54;100.00;102488.34;2054527;28;20223;-65
2022/10/27 03:45:25;;;;;;;7.97;3.83;;;;;;;14.53;100.00;102493.16;2054710;28;20206;-65
2022/10/27 03:46:25;;;;;;;9.53;4.23;;;;;;;14.53;100.00;102486.75;2054324;28;20198;-65
2022/10/27 03:47:26;;;;;;;5.33;3.87;;;;;;;14.52;100.00;102494.34;2054208;28;20985;-65
2022/10/27 03:48:26;;;;;;;9.30;4.10;;;;;;;14.52;100.00;102488.78;2055230;28;20200;-65
2022/10/27 03:49:27;;;;;;;7.07;4.00;;;;;;;14.47;100.00;102478.06;2055801;28;20252;-65
2022/10/27 03:50:28;;;;;;;8.53;4.50;;;;;;;14.52;100.00;102491.56;2054049;28;20191;-65
2022/10/27 03:51:28;;;;;;;7.17;4.63;;;;;;;14.49;100.00;102480.44;2054513;28;20229;-65
2022/10/27 03:52:29;;;;;;;10.17;4.63;;;;;;;14.55;100.00;102496.28;2054013;28;20278;-65
2022/10/27 03:53:29;;;;;;;7.20;4.33;;;;;;;14.56;100.00;102488.72;2054552;28;20332;-65
2022/10/27 03:54:31;;;;;;;5.87;4.30;;;;;;;14.52;100.00;102477.63;2056047;28;20599;-65
2022/10/27 03:55:32;;;;;;;7.63;3.97;;;;;;;14.58;100.00;102484.31;2056172;28;20225;-65
2022/10/27 03:56:32;;;;;;;7.10;4.10;;;;;;;13.92;100.00;102374.22;2054401;28;20464;-65
2022/10/27 03:57:33;;;;;;;9.03;4.70;;;;;;;14.62;100.00;102481.47;2054605;28;20771;-65
2022/10/27 03:58:33;;;;;;;8.03;4.00;;;;;;;14.44;100.00;102459.34;2054401;28;20288;-65
2022/10/27 03:59:34;;;;;;;7.97;4.50;;;;;;;14.63;100.00;102485.84;2054212;28;20197;-65
2022/10/27 04:00:34;;;;;;;7.57;4.20;;;;;;;14.62;100.00;102492.66;2055914;28;20287;-65
2022/10/27 04:01:35;;;;;;;6.63;4.13;;;;;;;13.96;100.00;102390.91;2052915;28;20229;-65
2022/10/27 04:02:35;;;;;;;5.97;4.00;;;;;;;14.58;100.00;102497.47;2053437;28;20201;-65
2022/10/27 04:03:35;;;;;;;8.70;4.20;;;;;;;14.58;100.00;102503.06;2053891;28;20191;-65
2022/10/27 04:04:36;;;;;;;7.73;4.40;;;;;;;14.52;100.00;102502.72;2053610;28;20675;-65
2022/10/27 04:05:38;;;;;;;14.57;5.00;;;;;;;14.46;100.00;102500.78;2053665;28;20213;-65
2022/10/27 04:06:38;;;;;;;12.40;5.50;;;;;;;14.40;100.00;102497.66;2055852;28;20205;-65
2022/10/27 04:07:39;;;;;;;11.37;5.27;;;;;;;14.44;100.00;102504.00;2054348;28;20485;-65
2022/10/27 04:08:39;;;;;;;13.53;5.80;;;;;;;14.19;100.00;102469.97;2053807;28;20293;-65
2022/10/27 04:09:40;;;;;;;13.53;5.50;;;;;;;14.43;100.00;102504.41;2053916;28;20209;-65
2022/10/27 04:10:40;;;;;;;9.63;4.80;;;;;;;14.43;100.00;102498.81;2053547;28;20214;-65
2022/10/27 04:11:41;;;;;;;11.77;5.83;;;;;;;14.43;100.00;102504.41;2053399;28;20194;-65
2022/10/27 04:12:49;;;;;;;14.80;5.23;;;;;;;14.40;100.00;102503.22;2054726;28;20190;-65
2022/10/27 04:13:49;;;;;;;11.13;4.70;;;;;;;14.38;100.00;102514.00;2054680;28;20216;-65
2022/10/27 04:14:49;;;;;;;9.50;4.97;;;;;;;14.34;100.00;102509.69;2053977;28;20479;-65
2022/10/27 04:15:50;;;;;;;11.23;5.53;;;;;;;14.33;100.00;102516.44;2054048;28;20233;-65
2022/10/27 04:16:50;;;;;;;8.70;4.97;;;;;;;14.33;100.00;102519.22;2053680;28;20194;-65
2022/10/27 04:17:52;;;;;;;11.80;4.80;;;;;;;14.32;100.00;102517.66;2052399;28;20727;-66
2022/10/27 04:18:53;;;;;;;9.50;4.90;;;;;;;14.32;100.00;102520.44;2051562;28;20187;-65
2022/10/27 04:19:53;;;;;;;9.70;4.70;;;;;;;14.18;100.00;102493.44;2053976;28;20440;-65
2022/10/27 04:20:54;;;;;;;9.27;5.10;;;;;;;14.31;100.00;102516.88;2052767;28;20202;-65
2022/10/27 04:21:55;;;;;;;10.90;5.03;;;;;;;14.32;100.00;102517.66;2052415;28;20198;-66
2022/10/27 04:22:59;;;;;;;10.20;4.60;;;;;;;14.33;100.00;102514.47;2052585;28;20206;-65
2022/10/27 04:23:59;;;;;;;11.17;5.00;;;;;;;14.33;100.00;102517.25;2050843;28;20443;-66
2022/10/27 04:24:59;;;;;;;12.83;5.00;;;;;;;14.30;100.00;102518.06;2051335;28;20759;-64
2022/10/27 04:26:00;;;;;;;11.60;5.20;;;;;;;14.32;100.00;102526.03;2054274;28;20198;-66
2022/10/27 04:27:00;;;;;;;11.07;4.90;;;;;;;14.33;100.00;102522.03;2049880;28;20200;-66
2022/10/27 04:28:03;;;;;;;8.57;4.57;;;;;;;14.31;100.00;102528.03;2052295;28;20199;-65
2022/10/27 04:29:03;;;;;;;11.53;5.20;;;;;;;14.32;100.00;102528.81;2052184;28;20195;-65
2022/10/27 04:30:04;;;;;;;16.33;5.57;;;;;;;14.32;100.00;102526.84;2052221;28;21177;-66
2022/10/27 04:31:05;;;;;;;24.90;6.90;;;;;;;14.32;100.00;102526.84;2052429;28;20232;-64
2022/10/27 04:32:05;;;;;;;22.97;7.10;;;;;;;14.32;100.00;102531.59;2053989;28;20218;-65
2022/10/27 04:33:05;;;;;;;31.00;7.20;;;;;;;14.31;100.00;102532.81;2052542;28;20724;-66
2022/10/27 04:34:06;;;;;;;28.87;6.73;;;;;;;14.31;100.00;102536.41;2052395;28;20584;-65
2022/10/27 04:35:07;;;;;;;27.00;6.63;;;;;;;14.27;100.00;102518.91;2050870;28;20672;-64
2022/10/27 04:36:07;;;;;;;19.20;6.87;;;;;;;14.32;100.00;102528.81;2051712;28;20198;-60
2022/10/27 04:37:08;;;;;;;16.87;6.10;;;;;;;14.28;100.00;102520.47;2052308;28;20179;-61
2022/10/27 04:38:08;;;;;;;15.73;8.23;;;;;;;14.33;100.00;102531.19;2055034;28;20201;-61
2022/10/27 04:39:13;;;;;;;17.37;9.97;;;;;;;14.33;100.00;102533.97;2052171;28;20191;-61
2022/10/27 04:40:14;;;;;;;22.20;12.30;;;;;;;14.33;100.00;102527.59;2051624;28;21459;-61
2022/10/27 04:41:15;;;;;;;20.70;11.27;;;;;;;14.31;100.00;102530.81;2050338;28;20603;-61
2022/10/27 04:42:15;;;;;;;20.40;10.97;;;;;;;14.35;100.00;102534.34;2043965;28;20653;-61
2022/10/27 04:43:16;;;;;;;22.13;11.53;;;;;;;14.36;100.00;102537.94;2045119;28;20691;-61
2022/10/27 04:44:16;;;;;;;17.70;10.30;;;;;;;14.37;100.00;102531.97;2054373;28;20269;-61
2022/10/27 04:45:16;;;;;;;29.90;9.77;;;;;;;14.36;100.00;102524.81;2053045;28;20551;-60
2022/10/27 04:46:17;;;;;;;19.33;9.03;;;;;;;14.22;100.00;102507.38;2051447;28;20202;-61
2022/10/27 04:47:18;;;;;;;11.57;6.60;;;;;;;14.38;100.00;102529.94;2051223;28;20284;-61
2022/10/27 04:48:18;;;;;;;16.63;6.83;;;;;;;14.37;100.00;102529.16;2051603;28;20197;-62
2022/10/27 04:49:19;;;;;;;12.90;6.33;;;;;;;14.36;100.00;102529.56;2052550;28;20182;-61
2022/10/27 04:50:19;;;;;;;10.63;6.43;;;;;;;14.36;100.00;102533.19;2053398;28;20190;-61
2022/10/27 04:51:20;;;;;;;15.27;7.80;;;;;;;14.09;100.00;102490.34;2047223;28;20206;-61
2022/10/27 04:52:20;;;;;;;15.33;8.33;;;;;;;14.36;100.00;102532.38;2049021;28;20268;-61